KGCC/GCC METAR and TAF weather

Enter ICAO airport designator
Station Type Date Time Source
KGCC METAR 2019/12/07 06:53 UTC NOAA

KGCC 070653Z AUTO 22016G28KT 10SM CLR 03/M03 A2997 RMK AO2 PK WND 21031/0619 SLP154 T00331033 400721050 $


Station Type Date Time Source
KGCC Decoded METAR 2019/12/07 06:53 UTC NOAA

GILLETTE-CAMPBELL CTY AIRPORT , WY, United States (KGCC) 44-20N 105-33W 1320M
Dec 07, 2019 - 01:53 AM EST / 2019.12.07 0653 UTC
Wind: from the SW (220 degrees) at 18 MPH (16 KT) gusting to 32 MPH (28 KT):0
Visibility: 10 mile(s):0
Sky conditions: clear
Temperature: 37.9 F (3.3 C)
Dew Point: 26.1 F (-3.3 C)
Relative Humidity: 61%
Pressure (altimeter): 29.97 in. Hg (1014 hPa)
ob: KGCC 070653Z AUTO 22016G28KT 10SM CLR 03/M03 A2997 RMK AO2 PK WND 21031/0619 SLP154 T00331033 400721050
cycle: 7

Station Type Date Time Source
KGCC TAF 2019/12/07 06:27 UTC NOAA

TAF KGCC 070525Z 0706/0806 23020G30KT P6SM BKN150

Example: see airport list